Norfolk, Virginia
Traffic Map
Current Weather Conditions
Norfolk, Virginia
Clear
Clear
47°
Feels Like: 47°
Wind Chill: 47° Ceiling: Unl
Heat Index: 47° Visibility: 10mi
Dew Point: 45° Wind: 0mph
Humidity: 93% Direction: ° ()
Pressure: 30.33in Gusts: 0mph
Raw Report DataKORF 180851Z 00000KT 10SM CLR 08/07 A3033 RMK AO2 SLP268 T00830072 55001
Traffic Incident Summary
Active as of:
Severity:
Category:
InformationThere was an issue retrieving the traffic information for this location. Please try a different location or try again shortly.
Advertisements